Time;durP1;ratioP1;P1;durP2;ratioP2;P2;SDS_P1;SDS_P2;PMS_P1;PMS_P2;Temp;Humidity;BMP_temperature;BMP_pressure;BME280_temperature;BME280_humidity;BME280_pressure;Samples;Min_cycle;Max_cycle;Signal;HPM_P1;HPM_P2
2024/03/14 00:00:53;;;;;;;7.18;3.58;;;;;;;10.30;86.15;100459.78;2495578;28;20047;-81
2024/03/14 00:02:11;;;;;;;5.13;3.53;;;;;;;10.28;86.20;100461.56;2493963;28;20392;-79
2024/03/14 00:03:28;;;;;;;4.85;3.60;;;;;;;10.28;86.21;100474.59;2502739;28;20055;-81
2024/03/14 00:04:42;;;;;;;6.35;3.80;;;;;;;10.24;86.23;100468.50;2505835;28;20548;-81
2024/03/14 00:05:56;;;;;;;7.30;4.05;;;;;;;10.21;86.08;100465.06;2495944;28;20043;-81
2024/03/14 00:07:12;;;;;;;5.50;4.07;;;;;;;10.16;86.09;100466.84;2495247;28;20047;-80
2024/03/14 00:08:25;;;;;;;5.35;3.63;;;;;;;10.11;86.13;100468.63;2502218;28;20096;-80
2024/03/14 00:09:40;;;;;;;4.10;3.45;;;;;;;10.08;86.10;100464.31;2495818;28;20073;-78
2024/03/14 00:10:54;;;;;;;6.85;4.20;;;;;;;10.04;86.02;100471.31;2506275;28;20058;-80
2024/03/14 00:12:09;;;;;;;4.13;3.72;;;;;;;10.02;86.06;100461.78;2495397;28;20051;-80
2024/03/14 00:13:23;;;;;;;6.80;3.92;;;;;;;9.98;86.19;100460.91;2494707;28;20051;-80
2024/03/14 00:14:39;;;;;;;9.45;4.40;;;;;;;9.96;86.21;100457.47;2495453;28;20054;-81
2024/03/14 00:15:52;;;;;;;11.00;3.70;;;;;;;9.93;86.14;100460.09;2500094;28;20138;-81
2024/03/14 00:17:07;;;;;;;6.40;3.70;;;;;;;9.90;86.29;100456.66;2500572;28;20046;-80
2024/03/14 00:18:20;;;;;;;5.93;3.72;;;;;;;9.88;86.20;100468.84;2498120;28;20043;-81
2024/03/14 00:19:35;;;;;;;11.38;3.50;;;;;;;9.86;86.28;100462.78;2492135;28;20047;-80
2024/03/14 00:20:48;;;;;;;7.90;3.28;;;;;;;9.83;86.36;100466.28;2492700;28;20051;-80
2024/03/14 00:22:03;;;;;;;7.57;2.75;;;;;;;9.80;86.44;100461.94;2494723;28;20492;-79
2024/03/14 00:23:17;;;;;;;5.47;4.15;;;;;;;9.78;86.51;100461.13;2511030;28;20050;-80
2024/03/14 00:24:31;;;;;;;6.57;3.55;;;;;;;9.76;86.42;100459.41;2501106;28;20073;-80
2024/03/14 00:25:45;;;;;;;8.27;3.55;;;;;;;9.72;86.47;100452.47;2500172;28;20054;-80
2024/03/14 00:26:59;;;;;;;8.18;3.42;;;;;;;9.69;86.68;100453.38;2499547;28;20089;-79
2024/03/14 00:28:13;;;;;;;3.28;2.97;;;;;;;9.66;86.77;100455.16;2494895;28;20054;-79
2024/03/14 00:29:27;;;;;;;10.70;4.57;;;;;;;9.61;86.62;100450.81;2493651;28;20047;-80
2024/03/14 00:30:41;;;;;;;4.57;3.90;;;;;;;9.57;86.60;100456.91;2499797;28;20058;-80
2024/03/14 00:31:56;;;;;;;4.68;3.42;;;;;;;9.55;86.65;100445.66;2494246;28;20621;-79
2024/03/14 00:33:10;;;;;;;4.90;3.80;;;;;;;9.53;86.70;100449.16;2494434;28;20507;-80
2024/03/14 00:34:26;;;;;;;19.52;5.22;;;;;;;9.49;86.57;100456.13;2491186;29;20113;-80
2024/03/14 00:35:39;;;;;;;13.38;4.32;;;;;;;9.45;86.63;100450.94;2500493;28;20053;-79
2024/03/14 00:36:54;;;;;;;5.13;3.80;;;;;;;9.40;86.63;100451.00;2494503;28;20448;-80
2024/03/14 00:38:08;;;;;;;8.05;3.67;;;;;;;9.34;86.66;100444.06;2509451;28;20038;-78
2024/03/14 00:39:23;;;;;;;5.43;3.53;;;;;;;9.32;86.75;100450.16;2498722;28;20047;-78
2024/03/14 00:40:37;;;;;;;5.28;3.78;;;;;;;9.28;86.76;100453.66;2500550;28;20053;-77
2024/03/14 00:41:51;;;;;;;6.85;4.25;;;;;;;9.24;86.81;100441.53;2502966;28;20063;-79
2024/03/14 00:43:05;;;;;;;8.88;3.90;;;;;;;9.22;86.86;100451.13;2495020;28;20043;-79
2024/03/14 00:44:19;;;;;;;4.93;3.40;;;;;;;9.18;86.92;100445.91;2495363;28;20047;-80
2024/03/14 00:45:33;;;;;;;7.18;3.65;;;;;;;9.15;86.97;100451.13;2502461;28;20054;-80
2024/03/14 00:46:48;;;;;;;5.47;4.63;;;;;;;9.11;86.93;100451.16;2497515;28;20047;-80
2024/03/14 00:48:02;;;;;;;9.75;3.47;;;;;;;9.07;86.85;100442.50;2488514;28;20524;-80
2024/03/14 00:49:16;;;;;;;5.25;3.75;;;;;;;9.03;86.84;100440.78;2494581;28;20046;-79
2024/03/14 00:50:33;;;;;;;7.47;4.35;;;;;;;8.99;87.05;100440.84;2493500;29;20398;-80
2024/03/14 00:51:48;;;;;;;5.60;3.83;;;;;;;8.95;87.02;100433.03;2496054;28;20046;-79
2024/03/14 00:53:02;;;;;;;5.47;3.65;;;;;;;8.90;86.87;100434.78;2500744;28;20050;-79
2024/03/14 00:54:17;;;;;;;8.70;3.63;;;;;;;8.85;87.01;100440.88;2496141;28;20134;-80
2024/03/14 00:55:31;;;;;;;5.63;3.58;;;;;;;8.80;87.07;100435.69;2494996;28;20047;-80
2024/03/14 00:56:46;;;;;;;7.35;3.70;;;;;;;8.78;87.04;100439.19;2502670;28;20106;-80
2024/03/14 00:58:02;;;;;;;8.82;4.90;;;;;;;8.74;87.21;100439.19;2495634;28;20532;-80
2024/03/14 00:59:16;;;;;;;9.02;3.75;;;;;;;8.71;87.12;100436.63;2502441;28;20042;-80
2024/03/14 01:00:30;;;;;;;8.68;4.43;;;;;;;8.69;87.29;100434.91;2498744;29;20058;-80
2024/03/14 01:01:45;;;;;;;6.43;3.65;;;;;;;8.66;87.34;100435.78;2494341;28;20796;-80
2024/03/14 01:02:59;;;;;;;5.32;3.65;;;;;;;8.65;87.29;100428.00;2501934;28;20047;-80
2024/03/14 01:04:14;;;;;;;10.95;5.50;;;;;;;8.62;87.26;100427.97;2502216;28;20058;-80
2024/03/14 01:05:27;;;;;;;5.55;4.63;;;;;;;8.57;87.19;100433.22;2495355;28;20078;-80
2024/03/14 01:06:42;;;;;;;6.65;4.55;;;;;;;8.54;87.28;100432.34;2494913;28;20043;-80
2024/03/14 01:07:56;;;;;;;14.13;4.20;;;;;;;8.48;87.29;100426.31;2490892;28;20051;-81
2024/03/14 01:09:11;;;;;;;6.65;4.15;;;;;;;8.44;87.23;100426.31;2501779;28;20389;-79
2024/03/14 01:10:24;;;;;;;8.38;3.85;;;;;;;8.41;87.33;100434.13;2500602;28;20106;-80
2024/03/14 01:11:40;;;;;;;5.75;4.18;;;;;;;8.37;87.37;100428.06;2495032;28;20055;-80
2024/03/14 01:12:53;;;;;;;6.82;4.53;;;;;;;8.34;87.47;100424.56;2499492;28;20059;-79
2024/03/14 01:14:08;;;;;;;8.57;4.32;;;;;;;8.32;87.32;100429.81;2491233;29;20047;-80
2024/03/14 01:15:22;;;;;;;7.63;4.68;;;;;;;8.28;87.43;100436.72;2494606;28;20051;-80
2024/03/14 01:16:37;;;;;;;7.05;4.38;;;;;;;8.25;87.39;100426.34;2504289;28;20261;-79
2024/03/14 01:17:50;;;;;;;9.80;3.83;;;;;;;8.21;87.61;100424.63;2498643;28;20051;-80
2024/03/14 01:19:06;;;;;;;5.95;3.83;;;;;;;8.19;87.55;100428.97;2496828;28;20048;-81
2024/03/14 01:20:20;;;;;;;9.48;4.35;;;;;;;8.16;87.72;100423.78;2498190;28;20047;-80
2024/03/14 01:21:37;;;;;;;10.73;4.53;;;;;;;8.14;87.71;100422.06;2494056;28;20519;-80
2024/03/14 01:22:51;;;;;;;6.68;4.10;;;;;;;8.13;87.62;100418.59;2495170;28;20058;-79
2024/03/14 01:24:06;;;;;;;8.88;4.10;;;;;;;8.11;87.95;100425.53;2494983;28;20050;-82
2024/03/14 01:25:20;;;;;;;7.70;4.50;;;;;;;8.11;87.88;100422.06;2493610;28;20097;-81
2024/03/14 01:26:34;;;;;;;11.73;4.75;;;;;;;8.09;87.92;100420.31;2490277;29;20138;-80
2024/03/14 01:27:49;;;;;;;9.50;6.60;;;;;;;8.07;88.00;100429.00;2499440;28;20046;-81
2024/03/14 01:29:06;;;;;;;6.13;4.50;;;;;;;8.06;88.03;100420.34;2502593;28;20042;-81
2024/03/14 01:30:21;;;;;;;5.57;4.15;;;;;;;8.05;88.04;100417.72;2500600;28;20043;-80
2024/03/14 01:31:36;;;;;;;9.77;4.93;;;;;;;8.05;88.13;100420.31;2494027;28;20046;-80
2024/03/14 01:32:49;;;;;;;15.63;4.80;;;;;;;8.04;88.06;100413.41;2491460;28;20071;-80
2024/03/14 01:34:05;;;;;;;8.35;4.28;;;;;;;8.03;87.97;100416.88;2493405;28;20046;-80
2024/03/14 01:35:18;;;;;;;4.60;4.20;;;;;;;7.99;88.16;100413.41;2490117;29;20047;-80
2024/03/14 01:36:34;;;;;;;7.18;3.90;;;;;;;7.95;88.13;100409.09;2491068;28;20116;-80
2024/03/14 01:37:47;;;;;;;8.02;4.50;;;;;;;7.94;88.02;100412.56;2499406;28;20046;-80
2024/03/14 01:39:04;;;;;;;9.48;4.47;;;;;;;7.93;88.32;100418.63;2495098;28;20042;-80
2024/03/14 01:40:18;;;;;;;10.07;5.32;;;;;;;7.92;88.24;100413.41;2497921;28;20047;-82
2024/03/14 01:41:33;;;;;;;5.45;4.47;;;;;;;7.93;88.15;100412.56;2499985;28;20114;-79
2024/03/14 01:42:46;;;;;;;7.53;4.80;;;;;;;7.93;88.30;100412.56;2493025;28;20074;-79
2024/03/14 01:44:01;;;;;;;5.25;4.43;;;;;;;7.92;88.22;100413.41;2491623;28;20058;-79
2024/03/14 01:45:14;;;;;;;7.38;4.88;;;;;;;7.91;88.27;100417.75;2491579;28;20157;-78
2024/03/14 01:46:29;;;;;;;5.07;4.57;;;;;;;7.90;88.34;100410.84;2489228;29;20043;-79
2024/03/14 01:47:43;;;;;;;6.70;4.57;;;;;;;7.90;88.19;100412.56;2491706;28;20062;-79
2024/03/14 01:48:58;;;;;;;12.50;5.38;;;;;;;7.89;88.17;100403.91;2493444;28;20061;-79
2024/03/14 01:50:13;;;;;;;9.88;4.68;;;;;;;7.88;88.36;100414.31;2493273;28;20053;-78
2024/03/14 01:51:28;;;;;;;11.07;5.03;;;;;;;7.85;88.11;100410.00;2499834;28;20054;-77
2024/03/14 01:52:44;;;;;;;8.18;4.70;;;;;;;7.84;88.36;100403.91;2493929;28;20058;-79
2024/03/14 01:53:59;;;;;;;5.13;4.18;;;;;;;7.82;88.26;100408.25;2491592;28;20054;-78
2024/03/14 01:55:14;;;;;;;9.27;4.88;;;;;;;7.82;88.27;100410.84;2499655;28;20051;-79
2024/03/14 01:56:30;;;;;;;5.65;4.85;;;;;;;7.81;88.45;100410.84;2493819;28;20049;-79
2024/03/14 01:57:43;;;;;;;8.75;5.10;;;;;;;7.79;88.33;100400.44;2494184;28;20054;-77
2024/03/14 01:58:58;;;;;;;6.50;4.80;;;;;;;7.80;88.29;100401.34;2494059;28;20046;-78
2024/03/14 02:00:13;;;;;;;7.32;5.43;;;;;;;7.80;88.30;100399.59;2493555;28;20073;-79
2024/03/14 02:01:28;;;;;;;5.85;4.38;;;;;;;7.81;88.42;100403.91;2493541;28;20043;-79
2024/03/14 02:02:42;;;;;;;9.65;5.00;;;;;;;7.81;88.48;100403.91;2490155;28;20062;-78
2024/03/14 02:03:56;;;;;;;8.85;5.35;;;;;;;7.81;88.81;100405.66;2493996;28;20051;-78
2024/03/14 02:05:10;;;;;;;7.75;5.32;;;;;;;7.79;88.58;100397.84;2500386;28;20051;-79
2024/03/14 02:06:25;;;;;;;4.95;4.47;;;;;;;7.77;88.38;100399.59;2498283;28;20055;-79
2024/03/14 02:07:38;;;;;;;5.95;4.55;;;;;;;7.75;88.44;100393.53;2498999;28;20047;-79
2024/03/14 02:08:53;;;;;;;8.43;5.18;;;;;;;7.74;88.69;100393.53;2503772;28;20053;-78
2024/03/14 02:10:07;;;;;;;6.95;5.10;;;;;;;7.72;88.61;100390.94;2493785;28;20047;-78
2024/03/14 02:11:22;;;;;;;5.72;4.30;;;;;;;7.70;88.59;100386.63;2500887;28;20055;-78
2024/03/14 02:12:35;;;;;;;7.57;4.15;;;;;;;7.69;88.65;100387.47;2504286;28;20534;-79
2024/03/14 02:13:50;;;;;;;10.13;6.43;;;;;;;7.66;88.36;100385.75;2500720;28;20051;-79
2024/03/14 02:15:04;;;;;;;5.97;4.38;;;;;;;7.65;88.49;100390.06;2502645;28;20082;-78
2024/03/14 02:16:19;;;;;;;11.80;5.45;;;;;;;7.63;88.39;100386.59;2494526;28;20515;-79
2024/03/14 02:17:32;;;;;;;8.38;4.32;;;;;;;7.61;88.62;100384.88;2493302;28;20046;-79
2024/03/14 02:18:47;;;;;;;7.40;5.18;;;;;;;7.59;88.37;100387.50;2494455;28;20400;-79
2024/03/14 02:20:00;;;;;;;8.18;4.82;;;;;;;7.59;88.53;100384.91;2493509;28;20051;-78
2024/03/14 02:21:15;;;;;;;10.07;4.65;;;;;;;7.57;88.38;100381.44;2497923;28;20049;-79
2024/03/14 02:22:29;;;;;;;6.70;5.68;;;;;;;7.55;88.30;100388.34;2497889;28;20523;-78
2024/03/14 02:23:43;;;;;;;7.40;5.38;;;;;;;7.56;88.62;100389.22;2490947;28;20047;-79
2024/03/14 02:24:57;;;;;;;7.68;4.72;;;;;;;7.56;88.61;100389.22;2496106;28;20140;-78
2024/03/14 02:26:12;;;;;;;6.75;4.75;;;;;;;7.55;88.66;100384.91;2500166;28;20057;-79
2024/03/14 02:27:26;;;;;;;5.15;4.63;;;;;;;7.53;88.53;100384.03;2493906;28;20043;-79
2024/03/14 02:28:40;;;;;;;7.28;3.85;;;;;;;7.53;88.69;100384.03;2499641;28;20540;-80
2024/03/14 02:29:54;;;;;;;10.63;5.63;;;;;;;7.51;88.71;100380.56;2490716;28;20055;-78
2024/03/14 02:31:09;;;;;;;5.57;3.28;;;;;;;7.49;88.69;100382.31;2492687;28;20051;-80
2024/03/14 02:32:22;;;;;;;5.55;4.50;;;;;;;7.46;88.52;100375.38;2493857;28;20046;-80
2024/03/14 02:33:37;;;;;;;4.90;3.97;;;;;;;7.47;88.62;100376.25;2498500;28;20097;-79
2024/03/14 02:34:50;;;;;;;8.00;5.07;;;;;;;7.46;88.76;100377.09;2492921;28;20061;-80
2024/03/14 02:36:06;;;;;;;8.32;5.10;;;;;;;7.45;88.58;100371.03;2491993;28;20391;-79
2024/03/14 02:37:19;;;;;;;4.80;3.97;;;;;;;7.46;88.87;100371.91;2491519;28;20162;-79
2024/03/14 02:38:34;;;;;;;6.80;3.97;;;;;;;7.46;88.77;100366.72;2488380;29;20051;-79
2024/03/14 02:39:47;;;;;;;7.95;4.13;;;;;;;7.46;88.60;100377.09;2490988;28;20101;-79
2024/03/14 02:41:03;;;;;;;6.32;4.22;;;;;;;7.45;88.92;100380.56;2492638;28;20073;-79
2024/03/14 02:42:16;;;;;;;7.28;4.07;;;;;;;7.41;88.89;100375.38;2497991;28;20125;-79
2024/03/14 02:43:31;;;;;;;7.03;4.72;;;;;;;7.41;88.82;100379.72;2491459;28;20428;-78
2024/03/14 02:44:45;;;;;;;7.88;5.00;;;;;;;7.39;88.68;100382.31;2500531;28;20491;-77
2024/03/14 02:46:00;;;;;;;7.20;3.95;;;;;;;7.40;88.68;100377.97;2493055;28;20049;-79
2024/03/14 02:47:14;;;;;;;7.50;4.82;;;;;;;7.41;88.97;100369.34;2493414;28;20085;-79
2024/03/14 02:48:28;;;;;;;8.85;4.57;;;;;;;7.42;88.78;100371.06;2504570;28;20051;-78
2024/03/14 02:49:42;;;;;;;9.15;4.63;;;;;;;7.41;88.85;100374.53;2498723;28;20050;-79
2024/03/14 02:50:56;;;;;;;6.15;4.25;;;;;;;7.42;88.99;100374.50;2492125;28;20046;-79
2024/03/14 02:52:10;;;;;;;6.45;4.10;;;;;;;7.42;88.89;100363.25;2492430;28;20075;-79
2024/03/14 02:53:26;;;;;;;6.63;4.57;;;;;;;7.41;88.83;100365.00;2491816;28;20059;-79
2024/03/14 02:54:40;;;;;;;6.63;4.25;;;;;;;7.41;88.78;100361.53;2505172;28;20054;-78
2024/03/14 02:55:54;;;;;;;6.85;4.20;;;;;;;7.42;88.96;100363.25;2506184;28;20051;-77
2024/03/14 02:57:08;;;;;;;8.07;4.20;;;;;;;7.41;88.73;100364.13;2509401;28;20057;-78
2024/03/14 02:58:23;;;;;;;6.22;4.05;;;;;;;7.40;88.57;100358.06;2504304;28;20467;-79
2024/03/14 02:59:36;;;;;;;5.95;4.22;;;;;;;7.40;88.82;100364.97;2492929;29;20047;-79
2024/03/14 03:00:53;;;;;;;5.65;4.68;;;;;;;7.39;88.99;100356.34;2499412;28;20055;-79
2024/03/14 03:02:10;;;;;;;11.10;4.50;;;;;;;7.38;88.73;100358.91;2492846;28;20043;-79
2024/03/14 03:03:25;;;;;;;7.80;3.92;;;;;;;7.37;89.07;100359.81;2493973;28;20444;-79
2024/03/14 03:04:39;;;;;;;7.28;4.13;;;;;;;7.36;88.88;100360.69;2503448;28;20042;-79
2024/03/14 03:05:54;;;;;;;7.85;4.55;;;;;;;7.36;88.74;100363.28;2489772;28;20048;-78
2024/03/14 03:07:09;;;;;;;8.93;5.38;;;;;;;7.34;88.66;100357.22;2492763;28;20047;-79
2024/03/14 03:08:24;;;;;;;7.30;4.45;;;;;;;7.31;88.69;100373.66;2494286;28;20050;-78
2024/03/14 03:09:38;;;;;;;5.88;4.30;;;;;;;7.27;88.83;100360.66;2500107;28;20052;-79
2024/03/14 03:10:52;;;;;;;8.20;4.05;;;;;;;7.25;88.73;100363.25;2496738;28;20113;-79
2024/03/14 03:12:06;;;;;;;7.32;4.13;;;;;;;7.26;89.00;100364.13;2492463;28;20047;-79
2024/03/14 03:13:21;;;;;;;6.95;4.45;;;;;;;7.24;88.74;100366.72;2491988;28;20467;-79
2024/03/14 03:14:36;;;;;;;10.20;5.05;;;;;;;7.23;88.95;100367.59;2491795;28;20135;-79
2024/03/14 03:15:50;;;;;;;4.32;3.92;;;;;;;7.22;89.13;100365.84;2491831;28;20050;-79
2024/03/14 03:17:05;;;;;;;6.13;5.53;;;;;;;7.20;88.86;100364.97;2492098;28;20058;-79
2024/03/14 03:18:19;;;;;;;5.60;4.82;;;;;;;7.20;88.80;100367.56;2488935;28;20055;-79
2024/03/14 03:19:35;;;;;;;6.65;5.95;;;;;;;7.20;88.94;100364.97;2491134;28;20043;-79
2024/03/14 03:20:51;;;;;;;6.35;4.50;;;;;;;7.18;88.91;100367.59;2502300;28;20133;-79
2024/03/14 03:22:05;;;;;;;10.43;5.82;;;;;;;7.17;88.88;100360.66;2497806;28;20055;-79
2024/03/14 03:23:19;;;;;;;7.82;5.20;;;;;;;7.16;89.12;100364.13;2492266;28;20050;-79
2024/03/14 03:24:33;;;;;;;5.75;4.32;;;;;;;7.16;88.87;100363.25;2488202;29;20054;-80
2024/03/14 03:25:47;;;;;;;5.30;4.80;;;;;;;7.15;89.18;100361.50;2505277;28;20046;-79
2024/03/14 03:27:01;;;;;;;7.07;5.38;;;;;;;7.15;89.10;100364.09;2497620;28;20496;-79
2024/03/14 03:28:15;;;;;;;8.70;4.75;;;;;;;7.14;89.13;100357.19;2491526;28;20046;-78
2024/03/14 03:29:29;;;;;;;7.93;4.82;;;;;;;7.12;88.94;100362.38;2488651;28;20043;-79
2024/03/14 03:30:43;;;;;;;7.93;4.68;;;;;;;7.12;89.15;100359.78;2491253;28;20050;-78
2024/03/14 03:31:57;;;;;;;6.43;4.30;;;;;;;7.14;89.15;100358.06;2492661;28;20131;-79
2024/03/14 03:33:11;;;;;;;7.90;5.22;;;;;;;7.14;88.89;100357.19;2492963;28;20050;-79
2024/03/14 03:34:25;;;;;;;5.35;4.85;;;;;;;7.12;89.12;100352.00;2498529;28;20051;-79
2024/03/14 03:35:40;;;;;;;9.65;4.75;;;;;;;7.12;88.99;100349.41;2492775;28;20051;-80
2024/03/14 03:36:54;;;;;;;9.07;5.03;;;;;;;7.11;88.91;100352.00;2492717;28;20046;-78
2024/03/14 03:38:09;;;;;;;5.95;4.18;;;;;;;7.09;88.84;100345.94;2491645;28;20605;-79
2024/03/14 03:39:25;;;;;;;5.88;5.03;;;;;;;7.07;88.80;100345.06;2492299;28;20042;-80
2024/03/14 03:40:39;;;;;;;4.55;4.15;;;;;;;7.03;88.82;100343.34;2492819;28;20074;-80
2024/03/14 03:41:54;;;;;;;8.77;4.70;;;;;;;7.01;88.97;100343.34;2500913;28;20050;-79
2024/03/14 03:43:08;;;;;;;12.18;4.55;;;;;;;7.02;89.07;100346.78;2503500;28;20046;-79
2024/03/14 03:44:21;;;;;;;9.00;4.15;;;;;;;7.00;88.88;100341.63;2498405;28;20385;-78
2024/03/14 03:45:36;;;;;;;6.43;5.05;;;;;;;6.99;89.02;100337.28;2491225;28;20055;-79
2024/03/14 03:46:51;;;;;;;9.02;4.88;;;;;;;6.98;88.88;100343.34;2491686;28;20117;-79
2024/03/14 03:48:05;;;;;;;7.55;4.78;;;;;;;6.95;88.82;100339.03;2490334;28;20592;-79
2024/03/14 03:49:20;;;;;;;6.13;4.07;;;;;;;6.95;88.77;100336.44;2490983;28;20191;-79
2024/03/14 03:50:34;;;;;;;6.65;4.57;;;;;;;6.93;88.89;100340.75;2491777;28;20097;-79
2024/03/14 03:51:48;;;;;;;9.75;5.45;;;;;;;6.93;88.75;100340.75;2492173;28;20059;-78
2024/03/14 03:53:02;;;;;;;6.03;4.72;;;;;;;6.90;88.95;100338.16;2495914;28;20047;-79
2024/03/14 03:54:18;;;;;;;8.63;5.00;;;;;;;6.87;88.92;100339.88;2491361;28;20603;-78
2024/03/14 03:55:32;;;;;;;8.15;4.78;;;;;;;6.83;88.81;100333.81;2494625;28;20532;-79
2024/03/14 03:56:46;;;;;;;4.75;4.25;;;;;;;6.81;88.91;100334.66;2493966;28;20055;-79
2024/03/14 03:58:00;;;;;;;5.15;4.65;;;;;;;6.76;88.75;100332.94;2491772;28;20043;-79
2024/03/14 03:59:14;;;;;;;6.85;4.47;;;;;;;6.76;88.91;100335.53;2491132;23;20048;-75
2024/03/14 04:00:41;;;;;;;6.93;5.25;;;;;;;6.77;88.97;100336.41;2474155;29;20377;-75
2024/03/14 04:01:55;;;;;;;7.10;4.50;;;;;;;6.74;88.79;100339.84;2459845;29;20072;-76
2024/03/14 04:03:11;;;;;;;6.03;4.57;;;;;;;6.73;88.80;100334.66;2463252;29;20048;-75
2024/03/14 04:04:26;;;;;;;6.25;4.78;;;;;;;6.73;88.90;100337.25;2467222;29;20119;-76
2024/03/14 04:05:40;;;;;;;5.13;4.50;;;;;;;6.72;89.01;100328.59;2454528;29;20060;-76
2024/03/14 04:06:53;;;;;;;6.03;4.70;;;;;;;6.70;88.93;100321.69;2457111;29;20107;-74
2024/03/14 04:08:08;;;;;;;8.43;4.90;;;;;;;6.69;89.18;100328.59;2468225;29;20056;-74
2024/03/14 04:09:21;;;;;;;5.22;4.35;;;;;;;6.69;88.98;100320.81;2455835;29;20049;-75
2024/03/14 04:10:35;;;;;;;5.82;4.47;;;;;;;6.66;88.95;100328.59;2461422;29;20044;-75
2024/03/14 04:11:50;;;;;;;6.22;4.97;;;;;;;6.63;88.85;100325.97;2461301;29;20143;-75
2024/03/14 04:13:04;;;;;;;8.35;4.70;;;;;;;6.62;88.99;100326.00;2458619;29;20060;-75
2024/03/14 04:14:18;;;;;;;7.40;4.82;;;;;;;6.60;88.92;100325.13;2448916;29;20075;-75
2024/03/14 04:15:33;;;;;;;7.70;4.70;;;;;;;6.57;88.95;100319.94;2462335;29;20710;-75
2024/03/14 04:16:49;;;;;;;4.90;4.30;;;;;;;6.53;89.04;100326.81;2464507;29;20091;-75
2024/03/14 04:18:05;;;;;;;6.50;4.97;;;;;;;6.50;89.00;100329.41;2447325;29;20052;-75
2024/03/14 04:19:18;;;;;;;7.35;5.28;;;;;;;6.48;88.82;100329.44;2448002;29;20127;-75
2024/03/14 04:20:33;;;;;;;6.32;4.95;;;;;;;6.46;89.07;100333.72;2447582;29;20057;-75
2024/03/14 04:21:47;;;;;;;6.28;4.57;;;;;;;6.46;88.99;100328.53;2453274;29;20161;-74
2024/03/14 04:23:02;;;;;;;6.03;5.10;;;;;;;6.48;88.79;100333.72;2458032;29;20103;-75
2024/03/14 04:24:17;;;;;;;6.70;4.80;;;;;;;6.47;89.07;100339.78;2448948;29;20435;-75
2024/03/14 04:25:32;;;;;;;8.27;4.28;;;;;;;6.46;88.92;100333.72;2442680;29;20073;-75
2024/03/14 04:26:45;;;;;;;8.27;5.90;;;;;;;6.46;89.10;100341.50;2461995;29;20059;-74
2024/03/14 04:28:02;;;;;;;9.65;5.32;;;;;;;6.45;88.98;100329.38;2455061;29;20056;-75
2024/03/14 04:29:16;;;;;;;5.82;4.82;;;;;;;6.45;88.89;100334.56;2443259;29;20072;-75
2024/03/14 04:30:31;;;;;;;7.07;4.07;;;;;;;6.45;89.04;100334.56;2452843;29;20496;-75
2024/03/14 04:31:44;;;;;;;5.43;4.85;;;;;;;6.45;88.99;100336.31;2445752;29;20118;-75
2024/03/14 04:32:59;;;;;;;10.82;5.03;;;;;;;6.44;88.94;100329.41;2451752;29;20443;-75
2024/03/14 04:34:12;;;;;;;5.68;4.70;;;;;;;6.42;89.50;100331.13;2464036;29;20550;-75
2024/03/14 04:35:27;;;;;;;7.20;5.53;;;;;;;6.43;88.93;100338.03;2449102;29;20081;-75
2024/03/14 04:36:41;;;;;;;6.72;4.30;;;;;;;6.43;89.15;100331.13;2442870;29;20056;-75
2024/03/14 04:37:55;;;;;;;6.78;4.57;;;;;;;6.44;89.23;100330.25;2442595;29;20056;-75
2024/03/14 04:39:09;;;;;;;8.90;5.50;;;;;;;6.43;88.92;100327.66;2443036;29;20060;-75
2024/03/14 04:40:24;;;;;;;7.75;5.05;;;;;;;6.40;88.78;100331.13;2443254;29;20072;-75
2024/03/14 04:41:38;;;;;;;9.98;5.03;;;;;;;6.38;89.00;100330.25;2439627;29;20078;-75
2024/03/14 04:42:53;;;;;;;11.05;5.75;;;;;;;6.36;89.04;100337.16;2452661;29;20052;-76
2024/03/14 04:44:07;;;;;;;8.65;5.63;;;;;;;6.32;88.88;100331.09;2449159;29;20053;-76
2024/03/14 04:45:22;;;;;;;7.95;5.45;;;;;;;6.32;89.14;100336.28;2442671;29;20116;-75
2024/03/14 04:46:36;;;;;;;7.97;5.75;;;;;;;6.32;89.11;100335.41;2452223;29;20049;-75
2024/03/14 04:47:51;;;;;;;5.93;5.32;;;;;;;6.32;89.08;100336.28;2449190;29;20053;-73
2024/03/14 04:49:06;;;;;;;12.27;4.70;;;;;;;6.31;89.14;100334.53;2456772;29;20049;-74
2024/03/14 04:50:21;;;;;;;7.53;4.90;;;;;;;6.30;88.87;100337.16;2455765;29;20100;-75
2024/03/14 04:51:34;;;;;;;7.93;5.22;;;;;;;6.27;89.03;100327.63;2439514;29;20045;-75
2024/03/14 04:52:49;;;;;;;8.20;6.05;;;;;;;6.24;88.80;100335.38;2470481;29;20052;-75
2024/03/14 04:54:03;;;;;;;11.43;6.10;;;;;;;6.22;89.13;100338.81;2465822;29;20061;-75
2024/03/14 04:55:20;;;;;;;11.77;5.82;;;;;;;6.18;88.87;100340.53;2464647;29;20399;-75
2024/03/14 04:56:34;;;;;;;9.00;4.75;;;;;;;6.17;88.83;100343.09;2464181;29;20068;-74
2024/03/14 04:57:48;;;;;;;11.10;5.47;;;;;;;6.15;88.91;100337.09;2461674;29;20056;-75
2024/03/14 04:59:02;;;;;;;8.23;6.15;;;;;;;6.14;88.91;100345.69;2467484;29;20059;-74
2024/03/14 05:00:21;;;;;;;9.60;5.10;;;;;;;6.13;88.95;100344.84;2464204;29;20048;-75
2024/03/14 05:01:35;;;;;;;9.70;4.90;;;;;;;6.11;88.89;100346.53;2458332;29;20956;-75
2024/03/14 05:02:50;;;;;;;7.53;5.15;;;;;;;6.09;88.87;100337.88;2464462;29;20055;-75
2024/03/14 05:04:03;;;;;;;7.28;6.35;;;;;;;6.08;88.79;100349.97;2446921;29;20503;-76
2024/03/14 05:05:18;;;;;;;7.93;5.85;;;;;;;6.05;88.79;100347.38;2442507;29;20060;-75
2024/03/14 05:06:32;;;;;;;5.72;5.13;;;;;;;6.04;88.90;100348.25;2451777;29;20052;-75
2024/03/14 05:07:48;;;;;;;10.80;5.78;;;;;;;6.03;88.90;100348.25;2458202;29;20139;-74
2024/03/14 05:09:01;;;;;;;8.75;5.78;;;;;;;6.00;88.88;100354.28;2454268;29;20053;-75
2024/03/14 05:10:18;;;;;;;12.30;5.78;;;;;;;5.99;88.83;100354.25;2457814;29;20040;-75
2024/03/14 05:11:32;;;;;;;6.57;4.38;;;;;;;5.97;89.08;100359.44;2454686;29;20056;-75
2024/03/14 05:12:47;;;;;;;14.63;7.05;;;;;;;5.96;88.88;100357.69;2472504;29;20127;-75
2024/03/14 05:14:02;;;;;;;13.00;7.30;;;;;;;5.94;88.88;100358.53;2454579;29;20116;-74
2024/03/14 05:15:17;;;;;;;6.25;5.50;;;;;;;5.90;88.78;100355.03;2461941;29;20048;-74
2024/03/14 05:16:31;;;;;;;9.55;5.40;;;;;;;5.90;89.04;100360.22;2463932;29;20175;-75
2024/03/14 05:17:45;;;;;;;9.52;4.70;;;;;;;5.89;88.94;100353.31;2444897;29;20053;-74
2024/03/14 05:18:59;;;;;;;12.27;5.20;;;;;;;5.87;88.92;100355.88;2458191;29;20052;-75
2024/03/14 05:20:15;;;;;;;6.47;5.22;;;;;;;5.86;88.87;100356.75;2457257;29;20059;-74
2024/03/14 05:21:29;;;;;;;12.02;5.40;;;;;;;5.84;88.82;100357.59;2457774;29;20049;-74
2024/03/14 05:22:44;;;;;;;5.60;4.63;;;;;;;5.83;89.06;100354.13;2451656;29;20056;-74
2024/03/14 05:23:58;;;;;;;10.23;5.47;;;;;;;5.80;88.88;100348.94;2451879;29;20100;-74
2024/03/14 05:25:12;;;;;;;9.05;4.80;;;;;;;5.79;88.95;100354.97;2457763;29;20554;-75
2024/03/14 05:26:27;;;;;;;6.75;5.40;;;;;;;5.78;89.07;100349.78;2444498;29;20057;-75
2024/03/14 05:27:43;;;;;;;8.35;5.25;;;;;;;5.76;89.03;100346.34;2458300;29;20078;-75
2024/03/14 05:28:57;;;;;;;9.38;5.57;;;;;;;5.73;88.85;100349.78;2473185;29;20084;-75
2024/03/14 05:30:12;;;;;;;8.20;5.57;;;;;;;5.68;88.94;100347.16;2463301;29;20053;-75
2024/03/14 05:31:26;;;;;;;5.50;4.80;;;;;;;5.66;88.87;100348.88;2452898;29;20048;-75
2024/03/14 05:32:41;;;;;;;9.35;5.07;;;;;;;5.63;89.02;100345.41;2452224;29;20514;-74
2024/03/14 05:33:55;;;;;;;5.88;5.10;;;;;;;5.58;88.88;100342.78;2460778;29;20100;-75
2024/03/14 05:35:10;;;;;;;7.10;5.38;;;;;;;5.54;88.93;100343.59;2463744;29;20498;-75
2024/03/14 05:36:24;;;;;;;9.93;5.55;;;;;;;5.54;88.90;100347.91;2445251;29;20057;-74
2024/03/14 05:37:38;;;;;;;8.80;5.57;;;;;;;5.51;88.74;100346.16;2457127;29;20517;-74
2024/03/14 05:38:52;;;;;;;10.93;4.93;;;;;;;5.49;88.94;100344.41;2454362;29;20546;-74
2024/03/14 05:40:09;;;;;;;8.18;5.50;;;;;;;5.47;88.93;100353.06;2442591;29;20057;-74
2024/03/14 05:41:23;;;;;;;8.85;6.10;;;;;;;5.45;89.00;100338.38;2442804;29;20108;-75
2024/03/14 05:42:39;;;;;;;7.88;5.75;;;;;;;5.42;88.81;100339.22;2443156;29;20558;-76
2024/03/14 05:43:52;;;;;;;5.95;5.15;;;;;;;5.40;88.92;100340.06;2442462;29;20448;-75
2024/03/14 05:45:08;;;;;;;10.45;5.40;;;;;;;5.39;88.98;100334.00;2442091;29;20180;-74
2024/03/14 05:46:22;;;;;;;8.65;6.03;;;;;;;5.37;89.00;100340.91;2442162;29;20052;-74
2024/03/14 05:47:38;;;;;;;7.18;5.93;;;;;;;5.37;89.01;100342.59;2442361;29;20501;-74
2024/03/14 05:48:52;;;;;;;10.73;6.45;;;;;;;5.34;89.11;100338.25;2442964;29;20065;-75
2024/03/14 05:50:09;;;;;;;9.05;5.22;;;;;;;5.35;89.03;100349.50;2442084;29;20522;-75